createdAt,value
2023-02-02T00:01:23.747Z,3.50
2023-02-02T00:03:51.769Z,3.50
2023-02-02T00:06:19.802Z,3.50
2023-02-02T00:08:47.799Z,4.60
2023-02-02T00:11:16.254Z,5.20
2023-02-02T00:13:45.900Z,3.50
2023-02-02T00:16:40.482Z,3.60
2023-02-02T00:19:10.860Z,3.60
2023-02-02T00:21:39.150Z,3.60
2023-02-02T00:24:08.034Z,3.30
2023-02-02T00:26:36.758Z,3.60
2023-02-02T00:29:07.140Z,3.30
2023-02-02T00:31:35.426Z,3.40
2023-02-02T00:34:03.383Z,3.60
2023-02-02T00:36:31.294Z,3.60
2023-02-02T00:38:59.207Z,3.50
2023-02-02T00:41:27.044Z,3.60
2023-02-02T00:44:08.826Z,3.60
2023-02-02T00:46:40.472Z,3.70
2023-02-02T00:49:08.434Z,3.70
2023-02-02T00:51:36.525Z,3.90
2023-02-02T00:54:04.906Z,4.70
2023-02-02T00:56:33.027Z,3.80
2023-02-02T00:59:00.946Z,3.80
2023-02-02T01:01:28.877Z,5.60
2023-02-02T01:03:58.887Z,3.80
2023-02-02T01:06:27.160Z,5.50
2023-02-02T01:08:55.266Z,4.30
2023-02-02T01:11:23.448Z,3.80
2023-02-02T01:13:51.329Z,3.60
2023-02-02T01:16:19.288Z,3.80
2023-02-02T01:18:47.311Z,3.80
2023-02-02T01:21:16.723Z,4.10
2023-02-02T01:23:44.705Z,3.90
2023-02-02T01:26:14.330Z,3.70
2023-02-02T01:28:42.510Z,3.60
2023-02-02T01:31:14.485Z,3.80
2023-02-02T01:33:43.644Z,3.80
2023-02-02T01:36:13.462Z,3.80
2023-02-02T01:38:43.179Z,3.80
2023-02-02T01:41:14.208Z,3.70
2023-02-02T01:43:57.656Z,3.70
2023-02-02T01:46:27.835Z,3.70
2023-02-02T01:49:00.926Z,3.70
2023-02-02T01:51:35.409Z,3.50
2023-02-02T01:54:08.184Z,5.60
2023-02-02T01:56:40.488Z,5.00
2023-02-02T01:59:08.615Z,3.60
2023-02-02T02:01:36.508Z,3.40
2023-02-02T02:04:04.687Z,3.50
2023-02-02T02:06:32.889Z,3.50
2023-02-02T02:09:03.493Z,4.70
2023-02-02T02:11:34.122Z,3.40
2023-02-02T02:14:31.247Z,4.40
2023-02-02T02:17:15.251Z,3.40
2023-02-02T02:20:33.108Z,3.40
2023-02-02T02:24:00.131Z,3.40
2023-02-02T02:27:08.444Z,3.40
2023-02-02T02:30:04.334Z,3.40
2023-02-02T02:32:39.792Z,3.40
2023-02-02T02:35:14.801Z,5.40
2023-02-02T02:37:49.583Z,3.40
2023-02-02T02:40:25.308Z,3.40
2023-02-02T02:42:59.404Z,5.00
2023-02-02T02:45:29.022Z,3.30
2023-02-02T02:47:58.759Z,3.80
2023-02-02T02:50:26.629Z,5.00
2023-02-02T02:53:01.491Z,3.20
2023-02-02T02:55:38.880Z,3.30
2023-02-02T02:58:10.792Z,3.10
2023-02-02T03:00:50.513Z,3.20
2023-02-02T03:03:38.903Z,3.00
2023-02-02T03:06:13.619Z,3.20
2023-02-02T03:08:46.877Z,3.10
2023-02-02T03:11:16.239Z,3.10
2023-02-02T03:13:45.179Z,3.10
2023-02-02T03:16:13.143Z,3.10
2023-02-02T03:18:42.558Z,4.20
2023-02-02T03:21:10.509Z,3.60
2023-02-02T03:23:38.605Z,4.30
2023-02-02T03:26:07.147Z,2.90
2023-02-02T03:28:35.829Z,3.00
2023-02-02T03:31:04.137Z,4.60
2023-02-02T03:33:34.221Z,2.90
2023-02-02T03:36:03.648Z,3.90
2023-02-02T03:38:31.743Z,2.90
2023-02-02T03:40:59.644Z,3.00
2023-02-02T03:43:27.781Z,3.00
2023-02-02T03:45:59.223Z,3.50
2023-02-02T03:48:27.706Z,3.00
2023-02-02T03:50:55.625Z,3.00
2023-02-02T03:53:25.392Z,2.70
2023-02-02T03:55:53.299Z,3.80
2023-02-02T03:58:22.179Z,3.00
2023-02-02T04:00:50.311Z,3.00
2023-02-02T04:03:18.176Z,4.10
2023-02-02T04:05:49.850Z,3.00
2023-02-02T04:08:17.741Z,3.10
2023-02-02T04:10:46.962Z,3.00
2023-02-02T04:13:15.024Z,3.10
2023-02-02T04:15:42.969Z,4.40
2023-02-02T04:18:10.924Z,3.10
2023-02-02T04:20:38.823Z,3.10
2023-02-02T04:23:06.735Z,3.10
2023-02-02T04:25:34.596Z,3.20
2023-02-02T04:28:03.815Z,3.30
2023-02-02T04:30:31.780Z,3.10
2023-02-02T04:32:59.635Z,3.20
2023-02-02T04:35:27.596Z,3.20
2023-02-02T04:37:56.566Z,3.20
2023-02-02T04:40:24.783Z,3.10
2023-02-02T04:42:52.651Z,3.30
2023-02-02T04:45:22.148Z,3.30
2023-02-02T04:47:50.116Z,3.40
2023-02-02T04:50:18.584Z,4.40
2023-02-02T04:52:46.528Z,3.50
2023-02-02T04:55:14.552Z,3.50
2023-02-02T04:57:43.608Z,3.60
2023-02-02T05:00:12.797Z,3.40
2023-02-02T05:02:43.042Z,3.60
2023-02-02T05:05:13.665Z,3.50
2023-02-02T05:07:41.640Z,3.50
2023-02-02T05:10:10.869Z,4.40
2023-02-02T05:12:38.931Z,3.60
2023-02-02T05:15:07.713Z,3.70
2023-02-02T05:17:35.595Z,3.70
2023-02-02T05:20:05.306Z,3.60
2023-02-02T05:22:33.160Z,3.80
2023-02-02T05:25:01.016Z,3.70
2023-02-02T05:27:28.855Z,5.00
2023-02-02T05:29:56.872Z,3.80
2023-02-02T05:32:24.994Z,3.80
2023-02-02T05:34:53.049Z,3.80
2023-02-02T05:37:22.291Z,3.80
2023-02-02T05:39:52.154Z,3.70
2023-02-02T05:42:20.015Z,3.60
2023-02-02T05:44:47.941Z,3.80
2023-02-02T05:47:15.827Z,3.70
2023-02-02T05:49:43.687Z,5.10
2023-02-02T05:52:17.681Z,3.60
2023-02-02T05:54:47.262Z,3.60
2023-02-02T05:57:15.208Z,3.60
2023-02-02T05:59:43.118Z,4.90
2023-02-02T06:02:11.016Z,3.70
2023-02-02T06:04:39.069Z,3.70
2023-02-02T06:07:06.964Z,3.80
2023-02-02T06:09:34.838Z,3.70
2023-02-02T06:12:04.212Z,3.70
2023-02-02T06:14:32.489Z,3.80
2023-02-02T06:17:00.372Z,3.80
2023-02-02T06:19:28.285Z,3.80
2023-02-02T06:21:56.164Z,5.10
2023-02-02T06:24:24.478Z,5.50
2023-02-02T06:26:52.508Z,3.80
2023-02-02T06:29:22.016Z,5.40
2023-02-02T06:31:49.922Z,4.10
2023-02-02T06:34:18.190Z,3.90
2023-02-02T06:36:46.050Z,3.90
2023-02-02T06:39:13.933Z,5.70
2023-02-02T06:41:41.839Z,4.00
2023-02-02T06:44:09.950Z,3.90
2023-02-02T06:46:39.223Z,4.00
2023-02-02T06:49:07.103Z,5.20
2023-02-02T06:51:34.976Z,4.00
2023-02-02T06:54:03.860Z,5.80
2023-02-02T06:56:32.074Z,4.10
2023-02-02T06:58:59.948Z,4.00
2023-02-02T07:01:27.867Z,5.10
2023-02-02T07:03:57.656Z,4.00
2023-02-02T07:06:27.454Z,4.20
2023-02-02T07:09:01.733Z,4.10
2023-02-02T07:11:30.830Z,5.00
2023-02-02T07:13:59.265Z,4.00
2023-02-02T07:16:27.173Z,4.20
2023-02-02T07:18:55.291Z,5.40
2023-02-02T07:21:28.295Z,4.20
2023-02-02T07:23:56.159Z,4.80
2023-02-02T07:26:24.077Z,4.30
2023-02-02T07:28:53.358Z,4.80
2023-02-02T07:31:23.306Z,5.10
2023-02-02T07:33:51.925Z,4.20
2023-02-02T07:36:21.878Z,5.40
2023-02-02T07:38:53.783Z,4.40
2023-02-02T07:41:22.433Z,4.40
2023-02-02T07:43:51.211Z,4.30
2023-02-02T07:46:20.588Z,4.40
2023-02-02T07:48:48.757Z,4.40
2023-02-02T07:51:18.523Z,5.10
2023-02-02T07:53:47.146Z,5.10
2023-02-02T07:56:18.300Z,5.60
2023-02-02T07:58:47.049Z,5.70
2023-02-02T08:01:16.620Z,4.40
2023-02-02T08:03:45.377Z,5.00
2023-02-02T08:06:16.174Z,5.20
2023-02-02T08:08:44.097Z,4.80
2023-02-02T08:11:13.955Z,4.50
2023-02-02T08:13:44.191Z,4.20
2023-02-02T08:16:12.688Z,4.20
2023-02-02T08:18:42.228Z,5.80
2023-02-02T08:21:10.304Z,4.40
2023-02-02T08:23:39.764Z,4.50
2023-02-02T08:26:09.533Z,5.50
2023-02-02T08:28:38.131Z,4.50
2023-02-02T08:31:09.526Z,6.00
2023-02-02T08:33:38.697Z,5.70
2023-02-02T08:36:12.373Z,5.80
2023-02-02T08:38:40.360Z,4.50
2023-02-02T08:41:09.469Z,6.10
2023-02-02T08:43:37.850Z,5.60
2023-02-02T08:46:08.652Z,4.70
2023-02-02T08:48:37.280Z,4.80
2023-02-02T08:51:06.265Z,5.50
2023-02-02T08:53:35.022Z,4.70
2023-02-02T08:56:04.190Z,4.70
2023-02-02T08:58:33.720Z,4.80
2023-02-02T09:01:07.924Z,5.70
2023-02-02T09:03:39.148Z,4.90
2023-02-02T09:06:08.707Z,6.00
2023-02-02T09:08:37.068Z,4.90
2023-02-02T09:11:10.268Z,5.70
2023-02-02T09:13:39.450Z,5.00
2023-02-02T09:16:12.252Z,6.10
2023-02-02T09:18:40.696Z,5.00
2023-02-02T09:21:10.916Z,6.00
2023-02-02T09:23:40.764Z,5.10
2023-02-02T09:26:12.783Z,5.20
2023-02-02T09:28:41.756Z,5.30
2023-02-02T09:31:11.307Z,5.30
2023-02-02T09:33:39.559Z,5.30
2023-02-02T09:36:10.222Z,5.40
2023-02-02T09:38:38.468Z,5.40
2023-02-02T09:41:34.106Z,5.50
2023-02-02T09:44:09.629Z,5.50
2023-02-02T09:46:51.067Z,5.60
2023-02-02T09:49:23.591Z,5.60
2023-02-02T09:51:58.125Z,5.70
2023-02-02T09:54:30.031Z,5.70
2023-02-02T09:57:01.500Z,6.30
2023-02-02T09:59:34.365Z,5.80
2023-02-02T10:02:14.561Z,5.90
2023-02-02T10:04:46.187Z,8.00
2023-02-02T10:07:18.684Z,6.00
2023-02-02T10:09:52.165Z,6.60
2023-02-02T10:12:32.405Z,6.10
2023-02-02T10:15:05.222Z,7.00
2023-02-02T10:17:43.164Z,6.20
2023-02-02T10:20:21.019Z,6.60
2023-02-02T10:22:50.819Z,6.30
2023-02-02T10:25:19.666Z,6.30
2023-02-02T10:27:56.928Z,7.30
2023-02-02T10:30:30.265Z,7.20
2023-02-02T10:33:06.591Z,6.40
2023-02-02T10:35:40.309Z,6.50
2023-02-02T10:38:18.886Z,7.30
2023-02-02T10:40:57.493Z,6.30
2023-02-02T10:43:48.392Z,6.90
2023-02-02T10:46:22.126Z,6.80
2023-02-02T10:48:52.843Z,6.80
2023-02-02T10:51:24.571Z,6.80
2023-02-02T10:53:54.860Z,6.90
2023-02-02T10:56:30.639Z,7.00
2023-02-02T10:59:05.654Z,7.00
2023-02-02T11:01:33.758Z,7.10
2023-02-02T11:04:20.241Z,7.20
2023-02-02T11:06:51.127Z,7.30
2023-02-02T11:09:22.148Z,7.40
2023-02-02T11:11:54.490Z,7.40
2023-02-02T11:14:31.289Z,7.40
2023-02-02T11:17:05.184Z,6.90
2023-02-02T11:19:36.202Z,7.40
2023-02-02T11:22:05.851Z,7.50
2023-02-02T11:24:41.882Z,7.50
2023-02-02T11:27:15.702Z,7.50
2023-02-02T11:29:47.411Z,7.60
2023-02-02T11:32:28.414Z,7.60
2023-02-02T11:35:17.243Z,7.60
2023-02-02T11:37:57.817Z,7.70
2023-02-02T11:40:31.874Z,7.70
2023-02-02T11:43:01.736Z,7.70
2023-02-02T11:45:37.223Z,7.80
2023-02-02T11:48:15.329Z,8.80
2023-02-02T11:50:49.171Z,7.90
2023-02-02T11:53:29.409Z,9.50
2023-02-02T11:56:00.584Z,7.60
2023-02-02T11:58:29.841Z,7.60
2023-02-02T12:01:00.785Z,9.50
2023-02-02T12:03:32.719Z,9.30
2023-02-02T12:06:03.024Z,7.50
2023-02-02T12:08:31.870Z,7.50
2023-02-02T12:11:02.129Z,7.60
2023-02-02T12:13:44.918Z,7.60
2023-02-02T12:16:29.753Z,7.70
2023-02-02T12:19:09.425Z,7.60
2023-02-02T12:21:46.644Z,7.60
2023-02-02T12:24:32.314Z,7.60
2023-02-02T12:27:19.411Z,7.60
2023-02-02T12:30:05.176Z,7.60
2023-02-02T12:32:57.404Z,7.70
2023-02-02T12:35:40.571Z,7.70
2023-02-02T12:38:17.300Z,8.70
2023-02-02T12:41:00.400Z,7.70
2023-02-02T12:43:40.441Z,7.80
2023-02-02T12:46:22.474Z,9.50
2023-02-02T12:49:15.092Z,7.80
2023-02-02T12:51:54.106Z,7.90
2023-02-02T12:54:51.321Z,8.00
2023-02-02T12:57:29.644Z,8.20
2023-02-02T13:00:16.252Z,8.10
2023-02-02T13:02:58.153Z,8.00
2023-02-02T13:05:42.333Z,8.10
2023-02-02T13:08:13.534Z,8.30
2023-02-02T13:10:47.413Z,8.40
2023-02-02T13:13:18.620Z,8.30
2023-02-02T13:15:50.713Z,8.30
2023-02-02T13:18:21.636Z,8.40
2023-02-02T13:20:53.441Z,8.30
2023-02-02T13:23:26.762Z,9.10
2023-02-02T13:26:02.541Z,8.20
2023-02-02T13:28:37.962Z,8.30
2023-02-02T13:31:17.595Z,8.30
2023-02-02T13:33:50.764Z,8.40
2023-02-02T13:36:25.683Z,8.40
2023-02-02T13:38:56.517Z,8.50
2023-02-02T13:41:26.433Z,8.40
2023-02-02T13:44:01.415Z,8.30
2023-02-02T13:46:37.415Z,9.50
2023-02-02T13:49:10.807Z,9.80
2023-02-02T13:51:51.754Z,8.10
2023-02-02T13:54:58.511Z,8.00
2023-02-02T13:57:52.910Z,8.10
2023-02-02T14:00:24.271Z,8.10
2023-02-02T14:02:55.344Z,8.00
2023-02-02T14:05:26.998Z,7.90
2023-02-02T14:08:01.972Z,7.80
2023-02-02T14:10:33.627Z,7.70
2023-02-02T14:13:36.733Z,7.10
2023-02-02T14:16:06.740Z,7.60
2023-02-02T14:18:57.447Z,7.70
2023-02-02T14:22:03.108Z,7.70
2023-02-02T14:24:47.210Z,7.60
2023-02-02T14:27:57.744Z,7.60
2023-02-02T14:30:32.667Z,7.50
2023-02-02T14:33:39.703Z,7.40
2023-02-02T14:36:16.796Z,7.30
2023-02-02T14:39:11.766Z,8.00
2023-02-02T14:42:28.736Z,7.20
2023-02-02T14:45:16.905Z,7.20
2023-02-02T14:47:51.463Z,7.20
2023-02-02T14:50:27.872Z,7.10
2023-02-02T14:53:08.251Z,7.00
2023-02-02T14:55:39.498Z,6.80
2023-02-02T14:58:08.645Z,6.80
2023-02-02T15:00:36.864Z,6.70
2023-02-02T15:03:35.644Z,6.80
2023-02-02T15:06:08.510Z,6.50
2023-02-02T15:08:36.615Z,6.60
2023-02-02T15:11:21.246Z,6.50
2023-02-02T15:14:02.449Z,6.40
2023-02-02T15:16:43.546Z,6.70
2023-02-02T15:19:24.231Z,6.40
2023-02-02T15:21:54.733Z,6.30
2023-02-02T15:24:27.233Z,6.60
2023-02-02T15:26:58.306Z,6.30
2023-02-02T15:29:37.006Z,6.90
2023-02-02T15:32:07.835Z,6.10
2023-02-02T15:34:41.759Z,6.40
2023-02-02T15:37:15.865Z,6.10
2023-02-02T15:39:53.166Z,5.80
2023-02-02T15:42:43.224Z,5.90
2023-02-02T15:45:39.815Z,6.20
2023-02-02T15:48:18.076Z,5.70
2023-02-02T15:50:48.731Z,5.70
2023-02-02T15:53:20.148Z,6.00
2023-02-02T15:55:48.246Z,5.50
2023-02-02T15:58:28.725Z,5.20
2023-02-02T16:01:02.305Z,5.50
2023-02-02T16:03:38.183Z,5.40
2023-02-02T16:06:08.735Z,6.00
2023-02-02T16:08:39.945Z,5.90
2023-02-02T16:11:11.557Z,5.20
2023-02-02T16:13:41.999Z,6.00
2023-02-02T16:16:23.888Z,5.20
2023-02-02T16:19:04.383Z,5.60
2023-02-02T16:21:35.229Z,5.70
2023-02-02T16:24:06.740Z,6.20
2023-02-02T16:26:37.888Z,5.10
2023-02-02T16:29:06.472Z,5.70
2023-02-02T16:31:36.837Z,5.10
2023-02-02T16:34:04.921Z,5.10
2023-02-02T16:36:34.439Z,5.00
2023-02-02T16:39:02.566Z,5.10
2023-02-02T16:41:34.279Z,6.20
2023-02-02T16:44:30.858Z,4.90
2023-02-02T16:47:00.161Z,5.00
2023-02-02T16:49:29.771Z,5.00
2023-02-02T16:52:18.776Z,5.60
2023-02-02T16:54:53.352Z,4.90
2023-02-02T16:57:24.763Z,4.90
2023-02-02T16:59:55.351Z,6.00
2023-02-02T17:02:30.387Z,5.00
2023-02-02T17:05:03.864Z,5.00
2023-02-02T17:07:35.433Z,5.00
2023-02-02T17:10:25.349Z,4.90
2023-02-02T17:12:53.283Z,5.00
2023-02-02T17:15:33.401Z,5.00
2023-02-02T17:18:03.160Z,5.00
2023-02-02T17:20:32.411Z,5.40
2023-02-02T17:23:04.434Z,4.90
2023-02-02T17:25:37.013Z,4.90
2023-02-02T17:28:10.953Z,4.90
2023-02-02T17:30:42.621Z,5.20
2023-02-02T17:33:14.626Z,5.10
2023-02-02T17:35:53.607Z,4.90
2023-02-02T17:38:27.642Z,4.90
2023-02-02T17:40:57.750Z,4.80
2023-02-02T17:43:26.991Z,4.80
2023-02-02T17:45:54.944Z,5.40
2023-02-02T17:48:22.833Z,5.70
2023-02-02T17:50:50.765Z,4.70
2023-02-02T17:53:21.331Z,5.10
2023-02-02T17:55:52.062Z,4.80
2023-02-02T17:58:20.073Z,4.80
2023-02-02T18:00:53.110Z,4.90
2023-02-02T18:03:23.417Z,4.60
2023-02-02T18:05:51.808Z,4.80
2023-02-02T18:08:20.161Z,4.90
2023-02-02T18:10:48.085Z,4.80
2023-02-02T18:13:20.103Z,5.40
2023-02-02T18:15:49.094Z,4.80
2023-02-02T18:18:17.423Z,4.80
2023-02-02T18:21:11.977Z,4.80
2023-02-02T18:23:39.891Z,4.80
2023-02-02T18:26:17.433Z,4.60
2023-02-02T18:28:48.752Z,4.80
2023-02-02T18:31:19.317Z,4.80
2023-02-02T18:33:48.398Z,4.80
2023-02-02T18:36:19.640Z,4.70
2023-02-02T18:38:48.878Z,4.70
2023-02-02T18:41:18.710Z,4.70
2023-02-02T18:43:48.277Z,4.70
2023-02-02T18:46:17.616Z,5.50
2023-02-02T18:48:45.568Z,5.30
2023-02-02T18:51:15.970Z,4.60
2023-02-02T18:53:44.023Z,4.70
2023-02-02T18:56:13.721Z,4.70
2023-02-02T18:58:42.256Z,5.00
2023-02-02T19:01:13.182Z,4.70
2023-02-02T19:03:41.350Z,4.80
2023-02-02T19:06:28.268Z,5.20
2023-02-02T19:08:56.391Z,4.60
2023-02-02T19:11:26.650Z,4.70
2023-02-02T19:13:54.836Z,4.70
2023-02-02T19:16:27.900Z,4.70
2023-02-02T19:18:58.201Z,4.60
2023-02-02T19:21:30.242Z,4.60
2023-02-02T19:23:58.421Z,4.70
2023-02-02T19:26:28.064Z,4.80
2023-02-02T19:29:13.923Z,5.20
2023-02-02T19:31:43.434Z,4.70
2023-02-02T19:34:13.643Z,5.00
2023-02-02T19:36:46.652Z,4.70
2023-02-02T19:39:18.529Z,4.50
2023-02-02T19:41:46.483Z,5.30
2023-02-02T19:44:19.395Z,5.70
2023-02-02T19:46:50.902Z,4.80
2023-02-02T19:49:25.771Z,4.40
2023-02-02T19:51:54.685Z,4.80
2023-02-02T19:54:30.611Z,4.90
2023-02-02T19:57:00.630Z,4.80
2023-02-02T19:59:35.721Z,4.80
2023-02-02T20:02:38.882Z,4.80
2023-02-02T20:05:17.689Z,4.60
2023-02-02T20:07:45.845Z,5.30
2023-02-02T20:10:20.847Z,5.40
2023-02-02T20:12:49.036Z,5.40
2023-02-02T20:15:35.165Z,4.90
2023-02-02T20:18:06.969Z,4.90
2023-02-02T20:20:40.201Z,4.90
2023-02-02T20:23:23.580Z,4.90
2023-02-02T20:25:51.503Z,5.00
2023-02-02T20:28:33.371Z,5.30
2023-02-02T20:31:03.407Z,5.00
2023-02-02T20:33:33.218Z,6.10
2023-02-02T20:36:02.530Z,4.80
2023-02-02T20:38:38.546Z,4.90
2023-02-02T20:41:06.831Z,5.10
2023-02-02T20:43:35.712Z,5.80
2023-02-02T20:46:04.095Z,5.20
2023-02-02T20:48:33.472Z,6.90
2023-02-02T20:51:01.346Z,5.20
2023-02-02T20:53:29.267Z,5.00
2023-02-02T20:55:59.757Z,5.50
2023-02-02T20:58:27.652Z,5.50
2023-02-02T21:00:55.829Z,6.40
2023-02-02T21:03:23.751Z,5.40
2023-02-02T21:05:52.987Z,6.20
2023-02-02T21:08:20.860Z,5.70
2023-02-02T21:10:48.746Z,5.60
2023-02-02T21:13:16.627Z,6.40
2023-02-02T21:15:44.553Z,6.10
2023-02-02T21:18:12.463Z,5.60
2023-02-02T21:20:40.440Z,6.00
2023-02-02T21:23:10.189Z,5.60
2023-02-02T21:25:38.175Z,6.10
2023-02-02T21:28:06.134Z,6.00
2023-02-02T21:30:34.160Z,5.70
2023-02-02T21:33:02.150Z,5.80
2023-02-02T21:35:30.313Z,6.30
2023-02-02T21:38:01.706Z,5.70
2023-02-02T21:40:34.463Z,7.90
2023-02-02T21:43:11.444Z,6.50
2023-02-02T21:45:39.907Z,5.90
2023-02-02T21:48:21.599Z,6.40
2023-02-02T21:50:49.540Z,6.00
2023-02-02T21:53:22.184Z,6.50
2023-02-02T21:55:54.785Z,6.30
2023-02-02T21:58:25.845Z,6.60
2023-02-02T22:00:54.880Z,6.10
2023-02-02T22:03:27.935Z,6.40
2023-02-02T22:06:09.475Z,6.20
2023-02-02T22:08:37.784Z,6.20
2023-02-02T22:11:19.152Z,6.30
2023-02-02T22:13:47.082Z,6.60
2023-02-02T22:16:18.421Z,6.30
2023-02-02T22:18:46.401Z,6.60
2023-02-02T22:21:15.145Z,6.40
2023-02-02T22:23:43.244Z,6.40
2023-02-02T22:26:29.293Z,6.60
2023-02-02T22:28:57.442Z,6.50
2023-02-02T22:31:25.702Z,6.50
2023-02-02T22:33:53.716Z,6.70
2023-02-02T22:36:21.608Z,6.60
2023-02-02T22:38:49.464Z,6.70
2023-02-02T22:41:18.757Z,6.70
2023-02-02T22:43:46.648Z,6.70
2023-02-02T22:46:14.616Z,6.80
2023-02-02T22:48:42.525Z,6.80
2023-02-02T22:51:10.543Z,6.90
2023-02-02T22:53:38.473Z,6.90
2023-02-02T22:56:07.084Z,6.90
2023-02-02T22:58:36.296Z,7.00
2023-02-02T23:01:04.888Z,7.00
2023-02-02T23:03:32.844Z,7.00
2023-02-02T23:06:00.760Z,7.00
2023-02-02T23:08:28.658Z,7.00
2023-02-02T23:10:56.598Z,7.10
2023-02-02T23:13:24.484Z,7.10
2023-02-02T23:15:53.843Z,7.10
2023-02-02T23:18:22.049Z,7.10
2023-02-02T23:20:50.530Z,7.20
2023-02-02T23:23:18.409Z,7.60
2023-02-02T23:25:46.267Z,7.20
2023-02-02T23:28:14.254Z,7.20
2023-02-02T23:30:42.595Z,7.60
2023-02-02T23:33:11.856Z,7.20
2023-02-02T23:35:39.715Z,7.20
2023-02-02T23:38:07.615Z,7.20
2023-02-02T23:40:35.469Z,7.20
2023-02-02T23:43:03.343Z,7.30
2023-02-02T23:45:31.243Z,8.30
2023-02-02T23:47:59.133Z,7.20
2023-02-02T23:50:29.050Z,7.30
2023-02-02T23:52:57.155Z,7.20
2023-02-02T23:55:25.060Z,7.30
2023-02-02T23:57:53.007Z,7.30
